DAL2665 KATL-CYUL
Flight info
| Callsign | DAL2665 |
|---|---|
| Flight time | 2h 9m |
| Altitude | 35000 |
| Route | PLMMR3 BURGG DCT CLAWD DCT PSK DCT PERRI Q103 EMNEM Q71 PSB J59 SYR DCT ART IMPAC4 |
| Aircraft | B739/M-SDE2E3FGHIRWXY/LB1 |
Departure
| Time | 2026-05-06 21:28 |
|---|---|
| Airport | Hartsfield Jackson Atlanta International Airport (KATL) |
Arrival
| Time | 2026-05-06 23:37 |
|---|---|
| Airport | Montreal / Pierre Elliott Trudeau International Airport (CYUL) |
| Time | Latitude | Longitude | Altitude | Speed | Heading |
|---|---|---|---|---|---|
| 2026-05-06 20:24 | 33.63822 | -84.42986 | 1005 ft | 0 kts | 89° |
| 2026-05-06 21:18 | 33.63822 | -84.42988 | 1005 ft | 2 kts | 89° |
| 2026-05-06 21:19 | 33.63821 | -84.43018 | 1005 ft | 4 kts | 81° |
| 2026-05-06 21:19 | 33.63813 | -84.43047 | 1005 ft | 4 kts | 50° |
| 2026-05-06 21:19 | 33.63793 | -84.43063 | 1005 ft | 4 kts | 7° |
| 2026-05-06 21:19 | 33.63782 | -84.43064 | 1005 ft | 1 kts | 0° |
| 2026-05-06 21:20 | 33.63781 | -84.43064 | 1005 ft | 0 kts | 0° |
| 2026-05-06 21:21 | 33.63791 | -84.43064 | 1005 ft | 6 kts | 0° |
| 2026-05-06 21:21 | 33.63838 | -84.43064 | 1005 ft | 7 kts | 0° |
| 2026-05-06 21:22 | 33.63890 | -84.43064 | 1005 ft | 9 kts | 0° |
| 2026-05-06 21:22 | 33.63972 | -84.43064 | 1005 ft | 15 kts | 0° |
| 2026-05-06 21:22 | 33.64092 | -84.43064 | 1005 ft | 18 kts | 0° |
| 2026-05-06 21:22 | 33.64212 | -84.43063 | 1005 ft | 17 kts | 0° |
| 2026-05-06 21:23 | 33.64327 | -84.43063 | 1005 ft | 16 kts | 359° |
| 2026-05-06 21:23 | 33.64436 | -84.43080 | 1006 ft | 16 kts | 337° |
| 2026-05-06 21:23 | 33.64529 | -84.43061 | 1006 ft | 16 kts | 62° |
| 2026-05-06 21:23 | 33.64541 | -84.42916 | 1006 ft | 20 kts | 90° |
| 2026-05-06 21:24 | 33.64541 | -84.42741 | 1005 ft | 21 kts | 90° |
| 2026-05-06 21:24 | 33.64541 | -84.42567 | 1005 ft | 21 kts | 90° |
| 2026-05-06 21:24 | 33.64542 | -84.42398 | 1005 ft | 20 kts | 89° |
| 2026-05-06 21:24 | 33.64542 | -84.42235 | 1005 ft | 19 kts | 90° |
| 2026-05-06 21:25 | 33.64542 | -84.42076 | 1005 ft | 19 kts | 90° |
| 2026-05-06 21:25 | 33.64543 | -84.41923 | 1005 ft | 18 kts | 90° |
| 2026-05-06 21:25 | 33.64542 | -84.41775 | 1006 ft | 17 kts | 90° |
| 2026-05-06 21:25 | 33.64542 | -84.41627 | 1006 ft | 19 kts | 90° |
| 2026-05-06 21:26 | 33.64542 | -84.41448 | 1006 ft | 24 kts | 90° |
| 2026-05-06 21:26 | 33.64542 | -84.41247 | 1006 ft | 24 kts | 90° |
| 2026-05-06 21:26 | 33.64541 | -84.41054 | 1006 ft | 23 kts | 90° |
| 2026-05-06 21:26 | 33.64541 | -84.40867 | 1005 ft | 22 kts | 90° |
| 2026-05-06 21:27 | 33.64540 | -84.40687 | 1005 ft | 21 kts | 90° |
| 2026-05-06 21:27 | 33.64616 | -84.40569 | 1004 ft | 20 kts | 0° |
| 2026-05-06 21:27 | 33.64679 | -84.40698 | 1003 ft | 22 kts | 274° |
| 2026-05-06 21:27 | 33.64680 | -84.41121 | 1006 ft | 89 kts | 269° |
| 2026-05-06 21:28 | 33.64674 | -84.42138 | 1009 ft | 155 kts | 264° |
| 2026-05-06 21:28 | 33.64785 | -84.43551 | 1473 ft | 180 kts | 279° |
| 2026-05-06 21:28 | 33.65218 | -84.45024 | 2254 ft | 193 kts | 294° |
| 2026-05-06 21:28 | 33.66178 | -84.46068 | 3372 ft | 194 kts | 319° |
| 2026-05-06 21:29 | 33.67333 | -84.47052 | 3725 ft | 217 kts | 318° |
| 2026-05-06 21:29 | 33.68656 | -84.48115 | 4019 ft | 237 kts | 320° |
| 2026-05-06 21:29 | 33.70095 | -84.49248 | 4375 ft | 256 kts | 320° |
| 2026-05-06 21:29 | 33.71616 | -84.50449 | 5053 ft | 264 kts | 320° |
| 2026-05-06 21:30 | 33.73144 | -84.51662 | 5994 ft | 262 kts | 320° |
| 2026-05-06 21:30 | 33.74669 | -84.52881 | 6819 ft | 264 kts | 320° |
| 2026-05-06 21:30 | 33.76344 | -84.53837 | 7662 ft | 276 kts | 341° |
| 2026-05-06 21:30 | 33.78316 | -84.53816 | 8447 ft | 295 kts | 9° |
| 2026-05-06 21:31 | 33.80146 | -84.52641 | 9154 ft | 314 kts | 40° |
| 2026-05-06 21:31 | 33.81064 | -84.51223 | 9638 ft | 323 kts | 62° |
| 2026-05-06 21:31 | 33.81373 | -84.50359 | 9887 ft | 326 kts | 73° |
| 2026-05-06 21:31 | 33.81637 | -84.47637 | 10433 ft | 335 kts | 94° |
| 2026-05-06 21:32 | 33.81481 | -84.44754 | 10704 ft | 357 kts | 97° |
| 2026-05-06 21:32 | 33.81267 | -84.38463 | 11417 ft | 389 kts | 92° |
| 2026-05-06 21:32 | 33.81279 | -84.35180 | 12058 ft | 394 kts | 90° |
| 2026-05-06 21:33 | 33.81592 | -84.31874 | 12628 ft | 402 kts | 79° |
| 2026-05-06 21:33 | 33.82194 | -84.28567 | 13242 ft | 407 kts | 77° |
| 2026-05-06 21:33 | 33.82831 | -84.25236 | 13870 ft | 411 kts | 77° |
| 2026-05-06 21:33 | 33.83474 | -84.21870 | 14410 ft | 416 kts | 77° |
| 2026-05-06 21:34 | 33.84106 | -84.18502 | 14985 ft | 419 kts | 77° |
| 2026-05-06 21:34 | 33.84739 | -84.15062 | 15578 ft | 422 kts | 77° |
| 2026-05-06 21:34 | 33.85369 | -84.11595 | 16155 ft | 427 kts | 77° |
| 2026-05-06 21:34 | 33.85998 | -84.08100 | 16755 ft | 430 kts | 77° |
| 2026-05-06 21:35 | 33.86642 | -84.04517 | 16891 ft | 446 kts | 77° |
| 2026-05-06 21:35 | 33.87305 | -84.00816 | 17058 ft | 458 kts | 77° |
| 2026-05-06 21:35 | 33.87983 | -83.97033 | 17462 ft | 463 kts | 77° |
| 2026-05-06 21:35 | 33.88663 | -83.93226 | 17997 ft | 465 kts | 77° |
| 2026-05-06 21:36 | 33.89438 | -83.89438 | 18439 ft | 467 kts | 70° |
| 2026-05-06 21:36 | 33.90606 | -83.85832 | 18832 ft | 469 kts | 64° |
| 2026-05-06 21:36 | 33.91930 | -83.82212 | 19223 ft | 472 kts | 64° |
| 2026-05-06 21:36 | 33.93250 | -83.78562 | 19607 ft | 476 kts | 64° |
| 2026-05-06 21:37 | 33.94547 | -83.74884 | 20024 ft | 478 kts | 63° |
| 2026-05-06 21:37 | 33.96061 | -83.71308 | 20388 ft | 478 kts | 54° |
| 2026-05-06 21:37 | 33.97963 | -83.68036 | 20763 ft | 478 kts | 49° |
| 2026-05-06 21:37 | 33.99946 | -83.64866 | 21150 ft | 480 kts | 48° |
| 2026-05-06 21:38 | 34.01980 | -83.61654 | 21515 ft | 483 kts | 48° |
| 2026-05-06 21:38 | 34.04023 | -83.58415 | 21870 ft | 486 kts | 48° |
| 2026-05-06 21:38 | 34.06063 | -83.55144 | 22231 ft | 489 kts | 48° |
| 2026-05-06 21:38 | 34.07412 | -83.52962 | 22477 ft | 491 kts | 48° |
| 2026-05-06 21:39 | 34.07971 | -83.52054 | 22573 ft | 491 kts | 48° |
| 2026-05-06 21:39 | 34.10011 | -83.48729 | 22923 ft | 494 kts | 49° |
| 2026-05-06 21:39 | 34.12057 | -83.45380 | 23263 ft | 497 kts | 49° |
| 2026-05-06 21:39 | 34.14110 | -83.42013 | 23593 ft | 500 kts | 49° |
| 2026-05-06 21:40 | 34.16174 | -83.38625 | 23869 ft | 502 kts | 49° |
| 2026-05-06 21:40 | 34.18243 | -83.35226 | 24172 ft | 503 kts | 49° |
| 2026-05-06 21:40 | 34.20325 | -83.31807 | 24463 ft | 505 kts | 49° |
| 2026-05-06 21:40 | 34.22405 | -83.28387 | 24744 ft | 507 kts | 49° |
| 2026-05-06 21:41 | 34.24500 | -83.24941 | 25002 ft | 509 kts | 49° |
| 2026-05-06 21:41 | 34.26571 | -83.21529 | 25261 ft | 511 kts | 49° |
| 2026-05-06 21:41 | 34.28676 | -83.18060 | 25530 ft | 513 kts | 49° |
| 2026-05-06 21:41 | 34.30795 | -83.14566 | 25783 ft | 515 kts | 49° |
| 2026-05-06 21:42 | 34.32921 | -83.11071 | 26044 ft | 516 kts | 49° |
| 2026-05-06 21:42 | 34.35065 | -83.07569 | 26305 ft | 518 kts | 49° |
| 2026-05-06 21:42 | 34.37216 | -83.04061 | 26565 ft | 519 kts | 49° |
| 2026-05-06 21:42 | 34.39349 | -83.00579 | 26806 ft | 521 kts | 49° |
| 2026-05-06 21:43 | 34.41515 | -82.97039 | 27036 ft | 523 kts | 49° |
| 2026-05-06 21:43 | 34.43688 | -82.93480 | 27276 ft | 525 kts | 49° |
| 2026-05-06 21:43 | 34.45860 | -82.89915 | 27521 ft | 526 kts | 49° |
| 2026-05-06 21:43 | 34.48037 | -82.86337 | 27739 ft | 528 kts | 49° |
| 2026-05-06 21:44 | 34.50218 | -82.82749 | 27964 ft | 530 kts | 49° |
| 2026-05-06 21:44 | 34.52405 | -82.79148 | 28178 ft | 531 kts | 49° |
| 2026-05-06 21:44 | 34.54596 | -82.75535 | 28456 ft | 531 kts | 49° |
| 2026-05-06 21:44 | 34.56782 | -82.71927 | 28829 ft | 529 kts | 49° |
| 2026-05-06 21:45 | 34.58958 | -82.68331 | 29225 ft | 527 kts | 49° |
| 2026-05-06 21:45 | 34.61125 | -82.64748 | 29575 ft | 527 kts | 49° |
| 2026-05-06 21:45 | 34.63264 | -82.61209 | 29912 ft | 527 kts | 49° |
| 2026-05-06 21:45 | 34.65431 | -82.57621 | 30216 ft | 526 kts | 49° |
| 2026-05-06 21:46 | 34.67589 | -82.54032 | 30534 ft | 527 kts | 49° |
| 2026-05-06 21:46 | 34.69040 | -82.51585 | 30717 ft | 527 kts | 50° |
| 2026-05-06 21:46 | 34.69851 | -82.50207 | 30824 ft | 527 kts | 50° |
| 2026-05-06 21:46 | 34.71976 | -82.46575 | 31106 ft | 528 kts | 50° |
| 2026-05-06 21:47 | 34.74102 | -82.42929 | 31396 ft | 528 kts | 50° |
| 2026-05-06 21:47 | 34.76224 | -82.39287 | 31694 ft | 528 kts | 50° |
| 2026-05-06 21:47 | 34.78354 | -82.35635 | 31998 ft | 529 kts | 49° |
| 2026-05-06 21:47 | 34.80488 | -82.31978 | 32310 ft | 529 kts | 49° |
| 2026-05-06 21:48 | 34.82618 | -82.28329 | 32604 ft | 529 kts | 49° |
| 2026-05-06 21:48 | 34.84750 | -82.24674 | 32872 ft | 530 kts | 49° |
| 2026-05-06 21:48 | 34.86888 | -82.21006 | 33158 ft | 530 kts | 49° |
| 2026-05-06 21:48 | 34.89021 | -82.17341 | 33447 ft | 531 kts | 49° |
| 2026-05-06 21:49 | 34.91132 | -82.13709 | 33705 ft | 532 kts | 49° |
| 2026-05-06 21:49 | 34.93298 | -82.09980 | 33981 ft | 532 kts | 49° |
| 2026-05-06 21:49 | 34.95407 | -82.06344 | 34189 ft | 533 kts | 49° |
| 2026-05-06 21:49 | 34.97549 | -82.02648 | 34448 ft | 533 kts | 49° |
| 2026-05-06 21:50 | 34.99685 | -81.98972 | 34694 ft | 532 kts | 46° |
| 2026-05-06 21:50 | 35.02071 | -81.95566 | 34908 ft | 521 kts | 36° |
| 2026-05-06 21:50 | 35.07707 | -81.90224 | 34985 ft | 506 kts | 20° |
| 2026-05-06 21:51 | 35.13989 | -81.86615 | 34982 ft | 497 kts | 13° |
| 2026-05-06 21:51 | 35.20287 | -81.83239 | 34975 ft | 498 kts | 13° |
| 2026-05-06 21:52 | 35.26619 | -81.79783 | 34978 ft | 499 kts | 13° |
| 2026-05-06 21:52 | 35.32945 | -81.76274 | 34983 ft | 499 kts | 14° |
| 2026-05-06 21:53 | 35.39269 | -81.72746 | 34974 ft | 499 kts | 14° |
| 2026-05-06 21:53 | 35.44492 | -81.69829 | 34978 ft | 499 kts | 14° |
| 2026-05-06 21:54 | 35.47778 | -81.67992 | 34980 ft | 499 kts | 14° |
| 2026-05-06 21:54 | 35.54105 | -81.64453 | 34965 ft | 499 kts | 14° |
| 2026-05-06 21:55 | 35.60412 | -81.60919 | 34986 ft | 498 kts | 14° |
| 2026-05-06 21:55 | 35.66727 | -81.57375 | 35003 ft | 498 kts | 14° |
| 2026-05-06 21:56 | 35.72995 | -81.53852 | 35012 ft | 498 kts | 14° |
| 2026-05-06 21:56 | 35.79301 | -81.50302 | 35022 ft | 498 kts | 14° |
| 2026-05-06 21:57 | 35.85610 | -81.46743 | 35019 ft | 499 kts | 14° |
| 2026-05-06 21:57 | 35.91935 | -81.43169 | 35000 ft | 500 kts | 14° |
| 2026-05-06 21:58 | 35.98263 | -81.39587 | 34988 ft | 501 kts | 14° |
| 2026-05-06 21:58 | 36.04611 | -81.35986 | 34968 ft | 501 kts | 14° |
| 2026-05-06 21:59 | 36.10921 | -81.32400 | 34999 ft | 502 kts | 14° |
| 2026-05-06 21:59 | 36.17276 | -81.28783 | 35007 ft | 503 kts | 14° |
| 2026-05-06 22:00 | 36.23646 | -81.25151 | 35021 ft | 504 kts | 14° |
| 2026-05-06 22:00 | 36.30030 | -81.21503 | 35022 ft | 506 kts | 14° |
| 2026-05-06 22:01 | 36.35352 | -81.18457 | 35004 ft | 507 kts | 15° |
| 2026-05-06 22:01 | 36.39878 | -81.15863 | 35016 ft | 507 kts | 14° |
| 2026-05-06 22:02 | 36.46271 | -81.12048 | 34980 ft | 513 kts | 17° |
| 2026-05-06 22:02 | 36.52604 | -81.07915 | 34974 ft | 515 kts | 18° |
| 2026-05-06 22:03 | 36.58902 | -81.03772 | 34968 ft | 514 kts | 17° |
| 2026-05-06 22:03 | 36.65242 | -80.99651 | 34977 ft | 515 kts | 17° |
| 2026-05-06 22:04 | 36.71624 | -80.95525 | 34986 ft | 516 kts | 17° |
| 2026-05-06 22:04 | 36.77971 | -80.91414 | 34992 ft | 517 kts | 16° |
| 2026-05-06 22:05 | 36.84364 | -80.87261 | 34992 ft | 519 kts | 16° |
| 2026-05-06 22:05 | 36.90766 | -80.83090 | 34975 ft | 519 kts | 16° |
| 2026-05-06 22:06 | 36.97178 | -80.78905 | 34949 ft | 518 kts | 15° |
| 2026-05-06 22:06 | 37.03524 | -80.74755 | 34970 ft | 517 kts | 15° |
| 2026-05-06 22:07 | 37.09936 | -80.70842 | 34961 ft | 500 kts | 6° |
| 2026-05-06 22:07 | 37.13207 | -80.69607 | 34972 ft | 487 kts | 1° |
| 2026-05-06 22:07 | 37.16483 | -80.68530 | 34973 ft | 484 kts | 360° |
| 2026-05-06 22:08 | 37.23009 | -80.66456 | 34971 ft | 482 kts | 360° |
| 2026-05-06 22:08 | 37.28410 | -80.64700 | 34954 ft | 483 kts | 0° |
| 2026-05-06 22:09 | 37.32945 | -80.63190 | 34957 ft | 482 kts | 0° |
| 2026-05-06 22:09 | 37.39386 | -80.61017 | 34947 ft | 482 kts | 0° |
| 2026-05-06 22:10 | 37.45869 | -80.58820 | 34929 ft | 481 kts | 0° |
| 2026-05-06 22:10 | 37.52337 | -80.56625 | 34924 ft | 481 kts | 0° |
| 2026-05-06 22:11 | 37.58813 | -80.54428 | 34927 ft | 482 kts | 0° |
| 2026-05-06 22:11 | 37.65297 | -80.52224 | 34923 ft | 482 kts | 0° |
| 2026-05-06 22:12 | 37.71770 | -80.50018 | 34933 ft | 482 kts | 1° |
| 2026-05-06 22:12 | 37.78241 | -80.47809 | 34960 ft | 481 kts | 1° |
| 2026-05-06 22:13 | 37.84684 | -80.45607 | 34957 ft | 482 kts | 1° |
| 2026-05-06 22:13 | 37.91172 | -80.43386 | 34956 ft | 483 kts | 1° |
| 2026-05-06 22:14 | 37.97663 | -80.41158 | 34956 ft | 483 kts | 1° |
| 2026-05-06 22:14 | 38.04155 | -80.38925 | 34947 ft | 484 kts | 1° |
| 2026-05-06 22:15 | 38.10658 | -80.36685 | 34950 ft | 483 kts | 1° |
| 2026-05-06 22:15 | 38.17124 | -80.34454 | 34935 ft | 485 kts | 1° |
| 2026-05-06 22:16 | 38.22553 | -80.32577 | 34931 ft | 485 kts | 1° |
| 2026-05-06 22:16 | 38.27059 | -80.31016 | 34946 ft | 484 kts | 1° |
| 2026-05-06 22:17 | 38.33521 | -80.28781 | 34941 ft | 483 kts | 1° |
| 2026-05-06 22:17 | 38.40010 | -80.26542 | 34947 ft | 481 kts | 1° |
| 2026-05-06 22:18 | 38.46466 | -80.24312 | 34944 ft | 480 kts | 1° |
| 2026-05-06 22:18 | 38.52909 | -80.22082 | 34945 ft | 479 kts | 1° |
| 2026-05-06 22:19 | 38.59342 | -80.19850 | 34956 ft | 479 kts | 1° |
| 2026-05-06 22:19 | 38.65766 | -80.17618 | 34949 ft | 478 kts | 1° |
| 2026-05-06 22:20 | 38.72190 | -80.15377 | 34960 ft | 477 kts | 2° |
| 2026-05-06 22:20 | 38.78551 | -80.13152 | 34961 ft | 477 kts | 1° |
| 2026-05-06 22:21 | 38.84956 | -80.10908 | 34965 ft | 477 kts | 2° |
| 2026-05-06 22:21 | 38.91357 | -80.08733 | 34960 ft | 470 kts | 357° |
| 2026-05-06 22:22 | 38.94539 | -80.08205 | 34959 ft | 452 kts | 348° |
| 2026-05-06 22:22 | 38.97671 | -80.08141 | 34966 ft | 449 kts | 346° |
| 2026-05-06 22:22 | 39.03923 | -80.08154 | 34961 ft | 450 kts | 346° |
| 2026-05-06 22:23 | 39.10204 | -80.08129 | 34967 ft | 453 kts | 347° |
| 2026-05-06 22:23 | 39.15403 | -80.08064 | 34963 ft | 454 kts | 347° |
| 2026-05-06 22:24 | 39.19981 | -80.07993 | 34964 ft | 455 kts | 347° |
| 2026-05-06 22:24 | 39.26307 | -80.07893 | 34974 ft | 455 kts | 347° |
| 2026-05-06 22:25 | 39.32652 | -80.07797 | 34973 ft | 455 kts | 347° |
| 2026-05-06 22:25 | 39.38987 | -80.07702 | 34971 ft | 455 kts | 347° |
| 2026-05-06 22:26 | 39.45310 | -80.07606 | 34969 ft | 454 kts | 347° |
| 2026-05-06 22:26 | 39.48485 | -80.07481 | 34960 ft | 465 kts | 353° |
| 2026-05-06 22:26 | 39.51718 | -80.06423 | 34972 ft | 496 kts | 10° |
| 2026-05-06 22:27 | 39.54798 | -80.04149 | 34953 ft | 522 kts | 28° |
| 2026-05-06 22:27 | 39.57417 | -80.00792 | 34996 ft | 534 kts | 39° |
| 2026-05-06 22:27 | 39.62251 | -79.93435 | 34979 ft | 535 kts | 41° |
| 2026-05-06 22:28 | 39.67040 | -79.86055 | 34961 ft | 532 kts | 40° |
| 2026-05-06 22:28 | 39.71854 | -79.78856 | 34985 ft | 530 kts | 40° |
| 2026-05-06 22:29 | 39.76727 | -79.71670 | 34956 ft | 530 kts | 39° |
| 2026-05-06 22:29 | 39.81606 | -79.64462 | 34972 ft | 530 kts | 40° |
| 2026-05-06 22:30 | 39.86464 | -79.57250 | 34982 ft | 530 kts | 40° |
| 2026-05-06 22:30 | 39.91320 | -79.50017 | 34975 ft | 530 kts | 40° |
| 2026-05-06 22:31 | 39.94546 | -79.45202 | 34973 ft | 530 kts | 40° |
| 2026-05-06 22:31 | 39.98703 | -79.38987 | 34964 ft | 531 kts | 40° |
| 2026-05-06 22:32 | 40.03545 | -79.31731 | 34949 ft | 531 kts | 40° |
| 2026-05-06 22:32 | 40.08400 | -79.24439 | 34942 ft | 531 kts | 40° |
| 2026-05-06 22:33 | 40.13232 | -79.17164 | 34945 ft | 529 kts | 40° |
| 2026-05-06 22:33 | 40.18070 | -79.09930 | 34918 ft | 527 kts | 40° |
| 2026-05-06 22:34 | 40.22936 | -79.02751 | 34935 ft | 526 kts | 40° |
| 2026-05-06 22:34 | 40.27749 | -78.95641 | 34933 ft | 525 kts | 40° |
| 2026-05-06 22:35 | 40.32583 | -78.88462 | 34935 ft | 524 kts | 40° |
| 2026-05-06 22:35 | 40.37402 | -78.81279 | 34936 ft | 524 kts | 40° |
| 2026-05-06 22:36 | 40.42209 | -78.74095 | 34925 ft | 523 kts | 40° |
| 2026-05-06 22:36 | 40.46979 | -78.66949 | 34926 ft | 522 kts | 40° |
| 2026-05-06 22:37 | 40.51764 | -78.59768 | 34917 ft | 521 kts | 40° |
| 2026-05-06 22:37 | 40.56530 | -78.52597 | 34916 ft | 521 kts | 40° |
| 2026-05-06 22:38 | 40.61293 | -78.45414 | 34910 ft | 520 kts | 41° |
| 2026-05-06 22:38 | 40.64440 | -78.40659 | 34901 ft | 520 kts | 41° |
| 2026-05-06 22:39 | 40.68613 | -78.34341 | 34905 ft | 519 kts | 41° |
| 2026-05-06 22:39 | 40.73352 | -78.27151 | 34913 ft | 518 kts | 41° |
| 2026-05-06 22:40 | 40.78040 | -78.20020 | 34916 ft | 517 kts | 41° |
| 2026-05-06 22:40 | 40.82750 | -78.12840 | 34910 ft | 516 kts | 41° |
| 2026-05-06 22:41 | 40.89800 | -78.02112 | 34902 ft | 512 kts | 38° |
| 2026-05-06 22:41 | 40.92373 | -77.98927 | 34909 ft | 501 kts | 30° |
| 2026-05-06 22:42 | 40.95187 | -77.96318 | 34906 ft | 488 kts | 20° |
| 2026-05-06 22:42 | 41.01069 | -77.91899 | 34906 ft | 486 kts | 19° |
| 2026-05-06 22:43 | 41.06935 | -77.87509 | 34907 ft | 487 kts | 20° |
| 2026-05-06 22:43 | 41.12817 | -77.83009 | 34907 ft | 489 kts | 20° |
| 2026-05-06 22:44 | 41.18710 | -77.78453 | 34907 ft | 490 kts | 20° |
| 2026-05-06 22:44 | 41.24589 | -77.73896 | 34907 ft | 492 kts | 20° |
| 2026-05-06 22:45 | 41.29514 | -77.70076 | 34911 ft | 493 kts | 21° |
| 2026-05-06 22:45 | 41.35441 | -77.65472 | 34906 ft | 494 kts | 21° |
| 2026-05-06 22:46 | 41.41377 | -77.60855 | 34913 ft | 494 kts | 21° |
| 2026-05-06 22:46 | 41.44436 | -77.58475 | 34911 ft | 494 kts | 21° |
| 2026-05-06 22:47 | 41.50379 | -77.53844 | 34907 ft | 494 kts | 21° |
| 2026-05-06 22:47 | 41.56307 | -77.49212 | 34914 ft | 494 kts | 21° |
| 2026-05-06 22:48 | 41.62237 | -77.44569 | 34921 ft | 492 kts | 21° |
| 2026-05-06 22:48 | 41.68144 | -77.39933 | 34919 ft | 492 kts | 21° |
| 2026-05-06 22:49 | 41.74005 | -77.35324 | 34922 ft | 491 kts | 21° |
| 2026-05-06 22:49 | 41.79898 | -77.30680 | 34922 ft | 491 kts | 21° |
| 2026-05-06 22:50 | 41.85781 | -77.26033 | 34932 ft | 490 kts | 22° |
| 2026-05-06 22:50 | 41.91657 | -77.21383 | 34928 ft | 490 kts | 22° |
| 2026-05-06 22:51 | 41.97527 | -77.16727 | 34919 ft | 489 kts | 22° |
| 2026-05-06 22:51 | 42.03351 | -77.12097 | 34922 ft | 489 kts | 22° |
| 2026-05-06 22:52 | 42.09208 | -77.07430 | 34916 ft | 489 kts | 22° |
| 2026-05-06 22:52 | 42.15079 | -77.02742 | 34916 ft | 489 kts | 22° |
| 2026-05-06 22:53 | 42.20942 | -76.98051 | 34923 ft | 490 kts | 22° |
| 2026-05-06 22:53 | 42.26827 | -76.93334 | 34922 ft | 493 kts | 22° |
| 2026-05-06 22:54 | 42.29975 | -76.90810 | 34922 ft | 497 kts | 22° |
| 2026-05-06 22:54 | 42.35964 | -76.85993 | 34928 ft | 503 kts | 22° |
| 2026-05-06 22:55 | 42.41980 | -76.81135 | 34925 ft | 504 kts | 23° |
| 2026-05-06 22:55 | 42.48016 | -76.76250 | 34922 ft | 505 kts | 23° |
| 2026-05-06 22:56 | 42.54014 | -76.71388 | 34930 ft | 505 kts | 23° |
| 2026-05-06 22:56 | 42.60051 | -76.66483 | 34919 ft | 505 kts | 23° |
| 2026-05-06 22:57 | 42.66049 | -76.61601 | 34922 ft | 505 kts | 23° |
| 2026-05-06 22:57 | 42.72073 | -76.56689 | 34911 ft | 505 kts | 23° |
| 2026-05-06 22:58 | 42.78102 | -76.51761 | 34917 ft | 504 kts | 23° |
| 2026-05-06 22:58 | 42.84121 | -76.46829 | 34917 ft | 504 kts | 23° |
| 2026-05-06 22:59 | 42.90088 | -76.41934 | 34917 ft | 503 kts | 23° |
| 2026-05-06 22:59 | 42.96089 | -76.37010 | 34915 ft | 503 kts | 23° |
| 2026-05-06 23:00 | 43.02086 | -76.32078 | 34915 ft | 503 kts | 23° |
| 2026-05-06 23:00 | 43.08085 | -76.27131 | 34904 ft | 504 kts | 23° |
| 2026-05-06 23:01 | 43.14141 | -76.22327 | 34902 ft | 497 kts | 15° |
| 2026-05-06 23:01 | 43.17560 | -76.20514 | 34916 ft | 486 kts | 7° |
| 2026-05-06 23:01 | 43.20808 | -76.19488 | 34905 ft | 473 kts | 357° |
| 2026-05-06 23:02 | 43.24069 | -76.18928 | 34920 ft | 471 kts | 356° |
| 2026-05-06 23:02 | 43.30559 | -76.17902 | 34911 ft | 473 kts | 356° |
| 2026-05-06 23:03 | 43.37122 | -76.16813 | 34914 ft | 476 kts | 356° |
| 2026-05-06 23:03 | 43.43702 | -76.15665 | 34913 ft | 478 kts | 356° |
| 2026-05-06 23:04 | 43.50313 | -76.14494 | 34911 ft | 479 kts | 356° |
| 2026-05-06 23:04 | 43.56927 | -76.13322 | 34759 ft | 482 kts | 356° |
| 2026-05-06 23:04 | 43.60220 | -76.12732 | 34302 ft | 474 kts | 356° |
| 2026-05-06 23:05 | 43.63503 | -76.12147 | 33516 ft | 474 kts | 355° |
| 2026-05-06 23:05 | 43.66772 | -76.11567 | 32724 ft | 473 kts | 355° |
| 2026-05-06 23:05 | 43.69989 | -76.10997 | 31967 ft | 471 kts | 356° |
| 2026-05-06 23:05 | 43.73235 | -76.10421 | 31218 ft | 470 kts | 356° |
| 2026-05-06 23:06 | 43.76478 | -76.09844 | 30483 ft | 468 kts | 356° |
| 2026-05-06 23:06 | 43.79707 | -76.09268 | 29726 ft | 466 kts | 356° |
| 2026-05-06 23:06 | 43.82916 | -76.08696 | 28897 ft | 464 kts | 357° |
| 2026-05-06 23:06 | 43.86116 | -76.08124 | 28283 ft | 462 kts | 357° |
| 2026-05-06 23:07 | 43.89338 | -76.07555 | 28142 ft | 471 kts | 357° |
| 2026-05-06 23:07 | 43.92623 | -76.06859 | 28013 ft | 488 kts | 3° |
| 2026-05-06 23:07 | 43.95942 | -76.05474 | 27926 ft | 507 kts | 13° |
| 2026-05-06 23:07 | 43.99167 | -76.03324 | 27902 ft | 524 kts | 23° |
| 2026-05-06 23:08 | 44.02284 | -76.00633 | 27913 ft | 530 kts | 26° |
| 2026-05-06 23:08 | 44.05381 | -75.97805 | 27906 ft | 534 kts | 27° |
| 2026-05-06 23:08 | 44.08486 | -75.94933 | 27900 ft | 536 kts | 27° |
| 2026-05-06 23:08 | 44.09499 | -75.93999 | 27894 ft | 536 kts | 27° |
| 2026-05-06 23:09 | 44.11586 | -75.92087 | 27897 ft | 535 kts | 27° |
| 2026-05-06 23:09 | 44.14711 | -75.89257 | 27876 ft | 535 kts | 26° |
| 2026-05-06 23:09 | 44.17846 | -75.86451 | 27882 ft | 534 kts | 26° |
| 2026-05-06 23:09 | 44.20977 | -75.83668 | 27877 ft | 534 kts | 26° |
| 2026-05-06 23:10 | 44.24117 | -75.80882 | 27887 ft | 534 kts | 26° |
| 2026-05-06 23:10 | 44.27212 | -75.78132 | 27881 ft | 534 kts | 26° |
| 2026-05-06 23:10 | 44.30352 | -75.75335 | 27879 ft | 532 kts | 26° |
| 2026-05-06 23:10 | 44.33418 | -75.72589 | 27570 ft | 517 kts | 26° |
| 2026-05-06 23:11 | 44.36430 | -75.69889 | 26780 ft | 512 kts | 26° |
| 2026-05-06 23:11 | 44.39419 | -75.67214 | 26035 ft | 508 kts | 27° |
| 2026-05-06 23:11 | 44.42380 | -75.64562 | 25303 ft | 503 kts | 27° |
| 2026-05-06 23:11 | 44.45317 | -75.61926 | 24583 ft | 499 kts | 27° |
| 2026-05-06 23:12 | 44.48229 | -75.59309 | 23889 ft | 495 kts | 28° |
| 2026-05-06 23:12 | 44.51122 | -75.56706 | 23151 ft | 492 kts | 28° |
| 2026-05-06 23:12 | 44.53988 | -75.54124 | 22344 ft | 488 kts | 28° |
| 2026-05-06 23:12 | 44.56833 | -75.51557 | 21569 ft | 485 kts | 28° |
| 2026-05-06 23:13 | 44.59630 | -75.49032 | 20817 ft | 481 kts | 28° |
| 2026-05-06 23:13 | 44.62438 | -75.46493 | 20083 ft | 477 kts | 28° |
| 2026-05-06 23:13 | 44.65224 | -75.43973 | 19356 ft | 474 kts | 28° |
| 2026-05-06 23:13 | 44.67991 | -75.41467 | 18652 ft | 471 kts | 28° |
| 2026-05-06 23:14 | 44.70737 | -75.38958 | 17925 ft | 469 kts | 30° |
| 2026-05-06 23:14 | 44.73300 | -75.36111 | 17131 ft | 471 kts | 39° |
| 2026-05-06 23:14 | 44.75534 | -75.32751 | 16366 ft | 470 kts | 46° |
| 2026-05-06 23:14 | 44.77652 | -75.29267 | 15620 ft | 467 kts | 47° |
| 2026-05-06 23:15 | 44.79746 | -75.25776 | 14891 ft | 464 kts | 47° |
| 2026-05-06 23:15 | 44.81829 | -75.22322 | 14173 ft | 460 kts | 47° |
| 2026-05-06 23:15 | 44.83875 | -75.18961 | 13458 ft | 457 kts | 46° |
| 2026-05-06 23:15 | 44.85950 | -75.15580 | 12674 ft | 454 kts | 46° |
| 2026-05-06 23:16 | 44.88010 | -75.12237 | 11910 ft | 450 kts | 46° |
| 2026-05-06 23:16 | 44.88703 | -75.11112 | 11658 ft | 449 kts | 47° |
| 2026-05-06 23:16 | 44.90083 | -75.08873 | 11156 ft | 446 kts | 47° |
| 2026-05-06 23:16 | 44.92094 | -75.05605 | 10855 ft | 431 kts | 47° |
| 2026-05-06 23:17 | 44.94009 | -75.02485 | 10847 ft | 410 kts | 47° |
| 2026-05-06 23:17 | 44.95831 | -74.99515 | 10821 ft | 391 kts | 47° |
| 2026-05-06 23:17 | 44.97573 | -74.96671 | 10800 ft | 374 kts | 47° |
| 2026-05-06 23:17 | 44.99089 | -74.93825 | 10765 ft | 357 kts | 58° |
| 2026-05-06 23:18 | 45.00292 | -74.90868 | 10726 ft | 338 kts | 60° |
| 2026-05-06 23:18 | 45.01427 | -74.87966 | 10358 ft | 339 kts | 60° |
| 2026-05-06 23:18 | 45.02564 | -74.85053 | 9973 ft | 336 kts | 60° |
| 2026-05-06 23:18 | 45.03693 | -74.82173 | 9573 ft | 333 kts | 60° |
| 2026-05-06 23:19 | 45.04814 | -74.79328 | 9143 ft | 328 kts | 60° |
| 2026-05-06 23:19 | 45.05919 | -74.76535 | 8735 ft | 324 kts | 60° |
| 2026-05-06 23:19 | 45.07035 | -74.73719 | 8346 ft | 336 kts | 59° |
| 2026-05-06 23:19 | 45.08204 | -74.70774 | 8042 ft | 346 kts | 59° |
| 2026-05-06 23:20 | 45.09379 | -74.67809 | 8025 ft | 346 kts | 59° |
| 2026-05-06 23:20 | 45.10563 | -74.64817 | 8021 ft | 349 kts | 59° |
| 2026-05-06 23:20 | 45.11742 | -74.61835 | 8011 ft | 349 kts | 59° |
| 2026-05-06 23:20 | 45.12976 | -74.58875 | 7997 ft | 349 kts | 57° |
| 2026-05-06 23:21 | 45.14262 | -74.55964 | 8006 ft | 347 kts | 56° |
| 2026-05-06 23:21 | 45.15550 | -74.53075 | 7994 ft | 345 kts | 56° |
| 2026-05-06 23:21 | 45.16807 | -74.50236 | 7985 ft | 335 kts | 56° |
| 2026-05-06 23:21 | 45.18023 | -74.47467 | 7980 ft | 327 kts | 56° |
| 2026-05-06 23:22 | 45.19217 | -74.44735 | 7993 ft | 325 kts | 56° |
| 2026-05-06 23:22 | 45.20392 | -74.42038 | 8002 ft | 326 kts | 57° |
| 2026-05-06 23:22 | 45.21583 | -74.39298 | 8013 ft | 327 kts | 57° |
| 2026-05-06 23:22 | 45.22779 | -74.36532 | 7970 ft | 329 kts | 57° |
| 2026-05-06 23:23 | 45.23976 | -74.33764 | 7702 ft | 327 kts | 57° |
| 2026-05-06 23:23 | 45.25154 | -74.31032 | 7462 ft | 325 kts | 56° |
| 2026-05-06 23:23 | 45.26349 | -74.28262 | 7226 ft | 329 kts | 56° |
| 2026-05-06 23:23 | 45.26736 | -74.27364 | 7143 ft | 327 kts | 56° |
| 2026-05-06 23:24 | 45.27638 | -74.25269 | 6939 ft | 323 kts | 56° |
| 2026-05-06 23:24 | 45.28796 | -74.22576 | 6699 ft | 317 kts | 56° |
| 2026-05-06 23:24 | 45.29937 | -74.19924 | 6456 ft | 312 kts | 56° |
| 2026-05-06 23:24 | 45.31037 | -74.17364 | 6205 ft | 307 kts | 56° |
| 2026-05-06 23:25 | 45.32156 | -74.14761 | 6000 ft | 299 kts | 56° |
| 2026-05-06 23:25 | 45.33209 | -74.12306 | 5999 ft | 292 kts | 56° |
| 2026-05-06 23:25 | 45.34273 | -74.09826 | 6006 ft | 295 kts | 56° |
| 2026-05-06 23:25 | 45.35351 | -74.07312 | 6006 ft | 299 kts | 56° |
| 2026-05-06 23:26 | 45.36530 | -74.04891 | 5988 ft | 296 kts | 44° |
| 2026-05-06 23:26 | 45.37993 | -74.02880 | 6003 ft | 290 kts | 37° |
| 2026-05-06 23:26 | 45.39512 | -74.01009 | 5997 ft | 289 kts | 36° |
| 2026-05-06 23:26 | 45.41030 | -73.99129 | 5995 ft | 289 kts | 37° |
| 2026-05-06 23:27 | 45.42528 | -73.97225 | 6001 ft | 288 kts | 38° |
| 2026-05-06 23:27 | 45.44015 | -73.95306 | 5990 ft | 288 kts | 38° |
| 2026-05-06 23:27 | 45.45494 | -73.93384 | 5996 ft | 288 kts | 38° |
| 2026-05-06 23:27 | 45.46955 | -73.91481 | 6000 ft | 288 kts | 38° |
| 2026-05-06 23:28 | 45.48432 | -73.89555 | 5995 ft | 288 kts | 38° |
| 2026-05-06 23:28 | 45.49892 | -73.87647 | 5871 ft | 282 kts | 39° |
| 2026-05-06 23:28 | 45.51349 | -73.85743 | 5438 ft | 284 kts | 39° |
| 2026-05-06 23:28 | 45.52808 | -73.83835 | 5038 ft | 281 kts | 39° |
| 2026-05-06 23:29 | 45.54240 | -73.81961 | 4630 ft | 276 kts | 39° |
| 2026-05-06 23:29 | 45.55641 | -73.80126 | 4212 ft | 272 kts | 39° |
| 2026-05-06 23:29 | 45.57006 | -73.78337 | 3808 ft | 268 kts | 39° |
| 2026-05-06 23:29 | 45.58368 | -73.76551 | 3394 ft | 265 kts | 39° |
| 2026-05-06 23:30 | 45.59727 | -73.74770 | 3053 ft | 266 kts | 38° |
| 2026-05-06 23:30 | 45.61091 | -73.72981 | 3017 ft | 268 kts | 39° |
| 2026-05-06 23:30 | 45.62470 | -73.71171 | 3010 ft | 270 kts | 39° |
| 2026-05-06 23:30 | 45.63863 | -73.69341 | 3003 ft | 273 kts | 39° |
| 2026-05-06 23:31 | 45.65264 | -73.67497 | 3005 ft | 273 kts | 39° |
| 2026-05-06 23:31 | 45.65735 | -73.66877 | 3010 ft | 272 kts | 39° |
| 2026-05-06 23:31 | 45.66749 | -73.65514 | 2994 ft | 273 kts | 45° |
| 2026-05-06 23:31 | 45.67612 | -73.63119 | 3000 ft | 275 kts | 80° |
| 2026-05-06 23:32 | 45.67417 | -73.60446 | 2992 ft | 271 kts | 116° |
| 2026-05-06 23:32 | 45.66368 | -73.58272 | 3009 ft | 265 kts | 134° |
| 2026-05-06 23:32 | 45.65115 | -73.56340 | 2996 ft | 265 kts | 139° |
| 2026-05-06 23:32 | 45.63640 | -73.54859 | 2981 ft | 256 kts | 167° |
| 2026-05-06 23:33 | 45.61974 | -73.54830 | 2978 ft | 230 kts | 205° |
| 2026-05-06 23:33 | 45.60826 | -73.56137 | 2995 ft | 207 kts | 239° |
| 2026-05-06 23:33 | 45.60020 | -73.57754 | 2985 ft | 194 kts | 233° |
| 2026-05-06 23:33 | 45.59149 | -73.59202 | 2984 ft | 191 kts | 231° |
| 2026-05-06 23:34 | 45.58219 | -73.60580 | 2865 ft | 197 kts | 228° |
| 2026-05-06 23:34 | 45.57219 | -73.61928 | 2608 ft | 198 kts | 226° |
| 2026-05-06 23:34 | 45.56544 | -73.62814 | 2435 ft | 198 kts | 227° |
| 2026-05-06 23:34 | 45.55537 | -73.64133 | 2164 ft | 196 kts | 226° |
| 2026-05-06 23:35 | 45.54531 | -73.65451 | 1886 ft | 196 kts | 226° |
| 2026-05-06 23:35 | 45.53530 | -73.66763 | 1626 ft | 195 kts | 225° |
| 2026-05-06 23:35 | 45.52540 | -73.68063 | 1376 ft | 191 kts | 225° |
| 2026-05-06 23:35 | 45.51581 | -73.69320 | 1084 ft | 181 kts | 224° |
| 2026-05-06 23:36 | 45.50683 | -73.70501 | 806 ft | 170 kts | 224° |
| 2026-05-06 23:36 | 45.49845 | -73.71599 | 562 ft | 157 kts | 223° |
| 2026-05-06 23:36 | 45.49087 | -73.72594 | 364 ft | 140 kts | 223° |
| 2026-05-06 23:36 | 45.48418 | -73.73475 | 170 ft | 128 kts | 223° |
| 2026-05-06 23:37 | 45.47785 | -73.74305 | 112 ft | 110 kts | 222° |
| 2026-05-06 23:37 | 45.47330 | -73.74902 | 118 ft | 67 kts | 222° |
| 2026-05-06 23:37 | 45.47130 | -73.75127 | 117 ft | 30 kts | 228° |
| 2026-05-06 23:37 | 45.46964 | -73.75375 | 115 ft | 35 kts | 224° |
| 2026-05-06 23:38 | 45.46777 | -73.75563 | 114 ft | 31 kts | 202° |
| 2026-05-06 23:38 | 45.46640 | -73.75621 | 115 ft | 6 kts | 192° |
| 2026-05-06 23:38 | 45.46599 | -73.75634 | 115 ft | 6 kts | 192° |
| 2026-05-06 23:38 | 45.46581 | -73.75640 | 115 ft | 0 kts | 193° |
| 2026-05-06 23:39 | 45.46567 | -73.75645 | 114 ft | 4 kts | 193° |
| 2026-05-06 23:39 | 45.46540 | -73.75653 | 114 ft | 4 kts | 193° |
| 2026-05-06 23:39 | 45.46514 | -73.75662 | 116 ft | 4 kts | 193° |
| 2026-05-06 23:40 | 45.46489 | -73.75671 | 112 ft | 4 kts | 193° |
| 2026-05-06 23:40 | 45.46464 | -73.75680 | 115 ft | 4 kts | 193° |
| 2026-05-06 23:40 | 45.46439 | -73.75688 | 115 ft | 4 kts | 193° |
| 2026-05-06 23:40 | 45.46415 | -73.75696 | 114 ft | 3 kts | 193° |
| 2026-05-06 23:41 | 45.46390 | -73.75705 | 113 ft | 5 kts | 193° |
| 2026-05-06 23:41 | 45.46330 | -73.75724 | 114 ft | 12 kts | 188° |
| 2026-05-06 23:41 | 45.46243 | -73.75725 | 113 ft | 11 kts | 179° |
| 2026-05-06 23:41 | 45.46229 | -73.75725 | 113 ft | 0 kts | 179° |
| 2026-05-06 23:42 | 45.46186 | -73.75723 | 113 ft | 13 kts | 179° |
| 2026-05-06 23:42 | 45.46083 | -73.75788 | 114 ft | 19 kts | 252° |
| 2026-05-06 23:42 | 45.46033 | -73.75949 | 115 ft | 18 kts | 210° |
| 2026-05-06 23:42 | 45.45909 | -73.75957 | 114 ft | 18 kts | 179° |
| 2026-05-06 23:43 | 45.45794 | -73.75914 | 112 ft | 17 kts | 145° |
| 2026-05-06 23:43 | 45.45697 | -73.75824 | 113 ft | 16 kts | 159° |
| 2026-05-06 23:43 | 45.45630 | -73.75773 | 115 ft | 4 kts | 149° |
| 2026-05-06 23:43 | 45.45604 | -73.75741 | 113 ft | 6 kts | 120° |
| 2026-05-06 23:44 | 45.45618 | -73.75688 | 113 ft | 7 kts | 61° |
| 2026-05-06 23:44 | 45.45614 | -73.75653 | 115 ft | 1 kts | 144° |
| 2026-05-06 23:44 | 45.45606 | -73.75650 | 112 ft | 2 kts | 168° |
| 2026-05-06 23:44 | 45.45599 | -73.75649 | 113 ft | 0 kts | 170° |
| 2026-05-06 23:45 | 45.45581 | -73.75644 | 114 ft | 4 kts | 169° |
| 2026-05-06 23:45 | 45.45576 | -73.75643 | 115 ft | 0 kts | 169° |